• Join FlightAware (Why Join?)
  • Login
  • US Flag 
11:41PM EDT


 

Airport Tracker/Info


-or-


 

Live Flight TrackerFlight Track Log ✈ KAP644 ✈ 13-Jun-2013 ✈ KBOS - KMVY

Flight Track Log - Related Links

Times and Time Zones

All times are in EDT time to prevent confusion due to time zone crossing. See the KAP644 flight status page for this flight to view local times or setup timezone preferences in your user account.

Time Position Orientation Groundspeed Altitude Reporting Facility
EDT Latitude Longitude Course Direction KTS MPH feet Rate Location/Type
12:35PM 42.3500 -70.9833 360° North 98 113 400  Level KA90
12:36PM 42.3500 -70.9833 114° Southeast 96 110 800 840 Climbing KA90
12:37PM 42.3333 -70.9333 114° Southeast 119 137 1,700 780 Climbing KA90
12:38PM 42.3000 -70.9167 160° South 124 143 2,300 540 Climbing KA90
12:39PM 42.2833 -70.9000 144° Southeast 122 140 2,800 480 Climbing KA90
12:40PM 42.2333 -70.8833 166° South 124 143 3,300 360 Climbing KA90
12:41PM 42.2000 -70.8833 180° South 142 163 3,600 120 Climbing KA90
12:42PM 42.1500 -70.8667 166° South 158 182 3,600  Level KA90
12:44PM 42.0848 -70.8840 160° South  Level FlightAware Approximate
12:51PM 41.8391 -70.7814 161° South  Level FlightAware Approximate
12:52PM 41.8041 -70.7654 161° South  Level FlightAware Approximate
12:53PM 41.7691 -70.7495 161° South  Level FlightAware Approximate
12:54PM 41.7340 -70.7336 161° South  Level FlightAware Approximate
12:55PM 41.6984 -70.7202 164° South  Level FlightAware Approximate
12:56PM 41.6628 -70.7068 164° South  Level FlightAware Approximate
12:57PM 41.6271 -70.6935 164° South  Level FlightAware Approximate
12:58PM 41.5915 -70.6801 164° South  Level FlightAware Approximate
12:59PM 41.5559 -70.6667 164° South  Level FlightAware Approximate
01:00PM 41.5202 -70.6534 164° South  Level FlightAware Approximate
01:01PM 41.4846 -70.6401 164° South  Level FlightAware Approximate
01:02PM 41.4491 -70.6263 163° South  Level FlightAware Approximate
01:03PM 41.4136 -70.6121 163° South  Level FlightAware Approximate
01:04PM 41.3934 -70.6139 163° South  Level Estimated
01:05PM 41.3934 -70.6139 163° South  Level Estimated
01:06PM 41.3934 -70.6139 163° South  Level Estimated
01:07PM 41.3934 -70.6139 163° South  Level Estimated
01:08PM 41.3934 -70.6139 163° South  Level Estimated
01:09PM 41.3934 -70.6139 163° South  Level Estimated